sensor_id;sensor_type;location;lat;lon;timestamp;temperature;humidity
62476;DHT22;50739;45.670;11.936;2023-12-22T00:03:10;3.33;88.30
62476;DHT22;50739;45.670;11.936;2023-12-22T00:08:12;3.46;88.49
62476;DHT22;50739;45.670;11.936;2023-12-22T00:13:16;3.50;88.38
62476;DHT22;50739;45.670;11.936;2023-12-22T00:18:19;3.48;88.84
62476;DHT22;50739;45.670;11.936;2023-12-22T00:23:21;3.49;88.66
62476;DHT22;50739;45.670;11.936;2023-12-22T00:28:25;3.44;88.10
62476;DHT22;50739;45.670;11.936;2023-12-22T00:33:27;3.32;89.31
62476;DHT22;50739;45.670;11.936;2023-12-22T00:38:29;3.53;89.06
62476;DHT22;50739;45.670;11.936;2023-12-22T00:43:34;3.38;89.61
62476;DHT22;50739;45.670;11.936;2023-12-22T00:48:36;3.35;89.65
62476;DHT22;50739;45.670;11.936;2023-12-22T00:53:38;3.40;89.14
62476;DHT22;50739;45.670;11.936;2023-12-22T00:58:42;3.19;89.44
62476;DHT22;50739;45.670;11.936;2023-12-22T01:03:44;3.21;89.42
62476;DHT22;50739;45.670;11.936;2023-12-22T01:08:47;3.18;89.03
62476;DHT22;50739;45.670;11.936;2023-12-22T01:13:52;3.21;89.39
62476;DHT22;50739;45.670;11.936;2023-12-22T01:18:54;3.29;89.43
62476;DHT22;50739;45.670;11.936;2023-12-22T01:23:57;3.22;89.33
62476;DHT22;50739;45.670;11.936;2023-12-22T01:29:01;3.50;89.35
62476;DHT22;50739;45.670;11.936;2023-12-22T01:34:04;3.31;89.72
62476;DHT22;50739;45.670;11.936;2023-12-22T01:39:06;3.33;90.70
62476;DHT22;50739;45.670;11.936;2023-12-22T01:44:10;3.38;90.00
62476;DHT22;50739;45.670;11.936;2023-12-22T01:49:13;3.40;89.83
62476;DHT22;50739;45.670;11.936;2023-12-22T01:54:16;3.46;89.54
62476;DHT22;50739;45.670;11.936;2023-12-22T01:59:20;3.35;89.96
62476;DHT22;50739;45.670;11.936;2023-12-22T02:04:23;3.31;90.16
62476;DHT22;50739;45.670;11.936;2023-12-22T02:09:26;3.40;88.51
62476;DHT22;50739;45.670;11.936;2023-12-22T02:14:30;3.28;90.11
62476;DHT22;50739;45.670;11.936;2023-12-22T02:19:40;3.21;91.23
62476;DHT22;50739;45.670;11.936;2023-12-22T02:24:45;3.31;90.95
62476;DHT22;50739;45.670;11.936;2023-12-22T02:29:50;3.43;89.80
62476;DHT22;50739;45.670;11.936;2023-12-22T02:34:56;3.52;89.03
62476;DHT22;50739;45.670;11.936;2023-12-22T02:40:01;3.40;90.08
62476;DHT22;50739;45.670;11.936;2023-12-22T02:45:05;3.46;89.68
62476;DHT22;50739;45.670;11.936;2023-12-22T02:50:09;3.38;90.13
62476;DHT22;50739;45.670;11.936;2023-12-22T02:55:13;3.39;90.05
62476;DHT22;50739;45.670;11.936;2023-12-22T03:00:16;3.19;90.53
62476;DHT22;50739;45.670;11.936;2023-12-22T03:05:18;3.28;89.97
62476;DHT22;50739;45.670;11.936;2023-12-22T03:10:22;3.18;90.38
62476;DHT22;50739;45.670;11.936;2023-12-22T03:15:24;3.14;90.19
62476;DHT22;50739;45.670;11.936;2023-12-22T03:20:27;3.36;89.70
62476;DHT22;50739;45.670;11.936;2023-12-22T03:25:31;3.04;89.29
62476;DHT22;50739;45.670;11.936;2023-12-22T03:30:34;2.93;90.11
62476;DHT22;50739;45.670;11.936;2023-12-22T03:35:38;2.97;90.42
62476;DHT22;50739;45.670;11.936;2023-12-22T03:40:42;3.03;90.42
62476;DHT22;50739;45.670;11.936;2023-12-22T03:45:44;3.16;90.16
62476;DHT22;50739;45.670;11.936;2023-12-22T03:50:47;3.22;89.47
62476;DHT22;50739;45.670;11.936;2023-12-22T03:55:51;3.26;89.80
62476;DHT22;50739;45.670;11.936;2023-12-22T04:00:54;3.14;90.67
62476;DHT22;50739;45.670;11.936;2023-12-22T04:05:56;3.52;88.86
62476;DHT22;50739;45.670;11.936;2023-12-22T04:11:00;3.25;90.84
62476;DHT22;50739;45.670;11.936;2023-12-22T04:16:03;3.32;89.98
62476;DHT22;50739;45.670;11.936;2023-12-22T04:21:06;3.35;90.13
62476;DHT22;50739;45.670;11.936;2023-12-22T04:26:10;3.48;89.41
62476;DHT22;50739;45.670;11.936;2023-12-22T04:31:12;3.48;89.10
62476;DHT22;50739;45.670;11.936;2023-12-22T04:36:14;3.46;89.64
62476;DHT22;50739;45.670;11.936;2023-12-22T04:41:18;3.52;89.18
62476;DHT22;50739;45.670;11.936;2023-12-22T04:46:20;3.64;89.21
62476;DHT22;50739;45.670;11.936;2023-12-22T04:51:23;3.63;89.06
62476;DHT22;50739;45.670;11.936;2023-12-22T04:56:27;3.62;89.08
62476;DHT22;50739;45.670;11.936;2023-12-22T05:01:30;3.76;88.63
62476;DHT22;50739;45.670;11.936;2023-12-22T05:06:32;3.76;88.69
62476;DHT22;50739;45.670;11.936;2023-12-22T05:11:36;3.88;88.16
62476;DHT22;50739;45.670;11.936;2023-12-22T05:16:39;3.94;87.56
62476;DHT22;50739;45.670;11.936;2023-12-22T05:21:41;4.02;86.90
62476;DHT22;50739;45.670;11.936;2023-12-22T05:26:45;4.29;85.65
62476;DHT22;50739;45.670;11.936;2023-12-22T05:31:47;4.35;85.52
62476;DHT22;50739;45.670;11.936;2023-12-22T05:36:50;4.46;85.37
62476;DHT22;50739;45.670;11.936;2023-12-22T05:41:54;4.45;85.07
62476;DHT22;50739;45.670;11.936;2023-12-22T05:46:56;4.53;84.45
62476;DHT22;50739;45.670;11.936;2023-12-22T05:51:59;4.42;84.94
62476;DHT22;50739;45.670;11.936;2023-12-22T05:57:03;4.34;85.01
62476;DHT22;50739;45.670;11.936;2023-12-22T06:02:07;4.21;85.93
62476;DHT22;50739;45.670;11.936;2023-12-22T06:07:10;4.34;86.35
62476;DHT22;50739;45.670;11.936;2023-12-22T06:12:13;3.97;85.93
62476;DHT22;50739;45.670;11.936;2023-12-22T06:17:19;3.67;86.98
62476;DHT22;50739;45.670;11.936;2023-12-22T06:22:21;3.21;87.84
62476;DHT22;50739;45.670;11.936;2023-12-22T06:27:26;3.22;87.81
62476;DHT22;50739;45.670;11.936;2023-12-22T06:32:30;3.19;87.82
62476;DHT22;50739;45.670;11.936;2023-12-22T06:37:33;3.25;87.86
62476;DHT22;50739;45.670;11.936;2023-12-22T06:42:37;3.35;87.07
62476;DHT22;50739;45.670;11.936;2023-12-22T06:47:40;3.11;86.76
62476;DHT22;50739;45.670;11.936;2023-12-22T06:52:43;3.05;87.84
62476;DHT22;50739;45.670;11.936;2023-12-22T06:57:46;2.87;87.83
62476;DHT22;50739;45.670;11.936;2023-12-22T07:02:49;2.79;88.54
62476;DHT22;50739;45.670;11.936;2023-12-22T07:07:51;2.86;89.03
62476;DHT22;50739;45.670;11.936;2023-12-22T07:12:55;2.93;88.83
62476;DHT22;50739;45.670;11.936;2023-12-22T07:17:57;2.95;88.80
62476;DHT22;50739;45.670;11.936;2023-12-22T07:23:00;3.05;88.82
62476;DHT22;50739;45.670;11.936;2023-12-22T07:28:04;3.25;88.30
62476;DHT22;50739;45.670;11.936;2023-12-22T07:33:07;3.21;87.90
62476;DHT22;50739;45.670;11.936;2023-12-22T07:38:09;3.55;86.72
62476;DHT22;50739;45.670;11.936;2023-12-22T07:43:14;3.29;87.92
62476;DHT22;50739;45.670;11.936;2023-12-22T07:48:16;3.40;88.11
62476;DHT22;50739;45.670;11.936;2023-12-22T07:53:19;3.49;88.11
62476;DHT22;50739;45.670;11.936;2023-12-22T07:58:23;3.43;86.80
62476;DHT22;50739;45.670;11.936;2023-12-22T08:03:25;3.46;87.69
62476;DHT22;50739;45.670;11.936;2023-12-22T08:08:28;3.44;87.91
62476;DHT22;50739;45.670;11.936;2023-12-22T08:13:32;3.52;87.50
62476;DHT22;50739;45.670;11.936;2023-12-22T08:18:34;3.79;86.90
62476;DHT22;50739;45.670;11.936;2023-12-22T08:23:37;3.86;87.55
62476;DHT22;50739;45.670;11.936;2023-12-22T08:28:41;4.18;86.64
62476;DHT22;50739;45.670;11.936;2023-12-22T08:33:43;4.36;85.99
62476;DHT22;50739;45.670;11.936;2023-12-22T08:38:46;4.72;85.56
62476;DHT22;50739;45.670;11.936;2023-12-22T08:43:50;4.85;84.94
62476;DHT22;50739;45.670;11.936;2023-12-22T08:48:52;5.10;84.19
62476;DHT22;50739;45.670;11.936;2023-12-22T08:53:55;5.14;84.19
62476;DHT22;50739;45.670;11.936;2023-12-22T08:58:59;5.24;84.35
62476;DHT22;50739;45.670;11.936;2023-12-22T09:04:01;5.34;83.82
62476;DHT22;50739;45.670;11.936;2023-12-22T09:09:03;5.48;83.95
62476;DHT22;50739;45.670;11.936;2023-12-22T09:14:08;5.56;84.06
62476;DHT22;50739;45.670;11.936;2023-12-22T09:19:11;5.76;83.63
62476;DHT22;50739;45.670;11.936;2023-12-22T09:24:13;6.03;83.16
62476;DHT22;50739;45.670;11.936;2023-12-22T09:29:19;6.21;83.25
62476;DHT22;50739;45.670;11.936;2023-12-22T09:34:22;6.42;83.00
62476;DHT22;50739;45.670;11.936;2023-12-22T09:39:27;6.57;82.10
62476;DHT22;50739;45.670;11.936;2023-12-22T09:44:32;6.72;82.24
62476;DHT22;50739;45.670;11.936;2023-12-22T09:49:35;6.97;81.28
62476;DHT22;50739;45.670;11.936;2023-12-22T09:54:39;7.10;80.84
62476;DHT22;50739;45.670;11.936;2023-12-22T09:59:44;7.38;79.32
62476;DHT22;50739;45.670;11.936;2023-12-22T10:04:47;7.44;78.98
62476;DHT22;50739;45.670;11.936;2023-12-22T10:09:50;7.38;79.74
62476;DHT22;50739;45.670;11.936;2023-12-22T10:14:56;7.52;78.93
62476;DHT22;50739;45.670;11.936;2023-12-22T10:19:58;7.51;80.47
62476;DHT22;50739;45.670;11.936;2023-12-22T10:25:01;7.74;80.51
62476;DHT22;50739;45.670;11.936;2023-12-22T10:30:06;7.87;80.06
62476;DHT22;50739;45.670;11.936;2023-12-22T10:35:09;7.98;80.06
62476;DHT22;50739;45.670;11.936;2023-12-22T10:40:13;7.94;80.03
62476;DHT22;50739;45.670;11.936;2023-12-22T10:45:17;7.97;79.72
62476;DHT22;50739;45.670;11.936;2023-12-22T10:50:20;7.95;80.48
62476;DHT22;50739;45.670;11.936;2023-12-22T10:55:22;7.98;80.22
62476;DHT22;50739;45.670;11.936;2023-12-22T11:00:26;8.12;80.69
62476;DHT22;50739;45.670;11.936;2023-12-22T11:05:29;8.11;80.20
62476;DHT22;50739;45.670;11.936;2023-12-22T11:10:35;8.34;80.03
62476;DHT22;50739;45.670;11.936;2023-12-22T11:15:41;8.65;79.21
62476;DHT22;50739;45.670;11.936;2023-12-22T11:20:43;8.69;78.53
62476;DHT22;50739;45.670;11.936;2023-12-22T11:25:48;8.73;77.89
62476;DHT22;50739;45.670;11.936;2023-12-22T11:30:57;8.72;78.67
62476;DHT22;50739;45.670;11.936;2023-12-22T11:36:01;8.79;78.08
62476;DHT22;50739;45.670;11.936;2023-12-22T11:41:05;9.15;77.73
62476;DHT22;50739;45.670;11.936;2023-12-22T11:46:10;9.13;77.74
62476;DHT22;50739;45.670;11.936;2023-12-22T11:51:13;9.13;77.37
62476;DHT22;50739;45.670;11.936;2023-12-22T11:56:16;9.21;77.69
62476;DHT22;50739;45.670;11.936;2023-12-22T12:01:23;9.32;76.55
62476;DHT22;50739;45.670;11.936;2023-12-22T12:06:33;9.52;75.68
62476;DHT22;50739;45.670;11.936;2023-12-22T12:12:11;10.01;74.85
62476;DHT22;50739;45.670;11.936;2023-12-22T12:17:15;9.93;75.16
62476;DHT22;50739;45.670;11.936;2023-12-22T12:22:19;10.58;73.02
62476;DHT22;50739;45.670;11.936;2023-12-22T12:27:25;10.48;73.46
62476;DHT22;50739;45.670;11.936;2023-12-22T12:32:29;10.62;72.96
62476;DHT22;50739;45.670;11.936;2023-12-22T12:37:32;10.45;73.34
62476;DHT22;50739;45.670;11.936;2023-12-22T12:42:35;11.13;71.16
62476;DHT22;50739;45.670;11.936;2023-12-22T12:47:40;10.75;73.13
62476;DHT22;50739;45.670;11.936;2023-12-22T12:52:42;10.54;74.16
62476;DHT22;50739;45.670;11.936;2023-12-22T12:57:44;10.65;72.92
62476;DHT22;50739;45.670;11.936;2023-12-22T13:02:52;10.69;72.39
62476;DHT22;50739;45.670;11.936;2023-12-22T13:08:06;10.86;72.65
62476;DHT22;50739;45.670;11.936;2023-12-22T13:13:09;11.02;71.28
62476;DHT22;50739;45.670;11.936;2023-12-22T13:18:13;11.35;70.08
62476;DHT22;50739;45.670;11.936;2023-12-22T13:23:17;11.51;70.45
62476;DHT22;50739;45.670;11.936;2023-12-22T13:28:25;11.42;71.73
62476;DHT22;50739;45.670;11.936;2023-12-22T13:33:33;11.65;71.37
62476;DHT22;50739;45.670;11.936;2023-12-22T13:38:36;12.06;70.42
62476;DHT22;50739;45.670;11.936;2023-12-22T13:43:38;12.60;69.99
62476;DHT22;50739;45.670;11.936;2023-12-22T13:48:43;12.81;69.25
62476;DHT22;50739;45.670;11.936;2023-12-22T13:53:48;13.27;67.85
62476;DHT22;50739;45.670;11.936;2023-12-22T13:58:51;13.28;67.43
62476;DHT22;50739;45.670;11.936;2023-12-22T14:03:55;13.44;66.57
62476;DHT22;50739;45.670;11.936;2023-12-22T14:08:58;13.91;65.36
62476;DHT22;50739;45.670;11.936;2023-12-22T14:14:00;13.72;66.01
62476;DHT22;50739;45.670;11.936;2023-12-22T14:19:04;14.19;64.91
62476;DHT22;50739;45.670;11.936;2023-12-22T14:24:07;14.46;63.80
62476;DHT22;50739;45.670;11.936;2023-12-22T14:29:09;13.37;66.88
62476;DHT22;50739;45.670;11.936;2023-12-22T14:34:14;12.67;69.35
62476;DHT22;50739;45.670;11.936;2023-12-22T14:39:16;12.24;71.06
62476;DHT22;50739;45.670;11.936;2023-12-22T14:44:18;11.69;72.75
62476;DHT22;50739;45.670;11.936;2023-12-22T14:49:22;11.52;73.41
62476;DHT22;50739;45.670;11.936;2023-12-22T14:54:25;10.84;75.93
62476;DHT22;50739;45.670;11.936;2023-12-22T14:59:27;10.58;76.88
62476;DHT22;50739;45.670;11.936;2023-12-22T15:04:37;10.55;76.99
62476;DHT22;50739;45.670;11.936;2023-12-22T15:09:39;10.24;78.56
62476;DHT22;50739;45.670;11.936;2023-12-22T15:14:44;9.89;79.30
62476;DHT22;50739;45.670;11.936;2023-12-22T15:19:48;9.69;80.06
62476;DHT22;50739;45.670;11.936;2023-12-22T15:24:51;9.62;80.29
62476;DHT22;50739;45.670;11.936;2023-12-22T15:29:54;9.45;80.96
62476;DHT22;50739;45.670;11.936;2023-12-22T15:34:57;9.30;82.16
62476;DHT22;50739;45.670;11.936;2023-12-22T15:40:00;9.23;81.50
62476;DHT22;50739;45.670;11.936;2023-12-22T15:45:03;9.14;81.97
62476;DHT22;50739;45.670;11.936;2023-12-22T15:50:08;8.94;82.18
62476;DHT22;50739;45.670;11.936;2023-12-22T15:55:16;8.63;83.32
62476;DHT22;50739;45.670;11.936;2023-12-22T16:00:19;8.31;83.82
62476;DHT22;50739;45.670;11.936;2023-12-22T16:05:23;8.15;83.85
62476;DHT22;50739;45.670;11.936;2023-12-22T16:10:25;8.12;84.20
62476;DHT22;50739;45.670;11.936;2023-12-22T16:15:27;7.90;84.57
62476;DHT22;50739;45.670;11.936;2023-12-22T16:20:31;7.74;85.13
62476;DHT22;50739;45.670;11.936;2023-12-22T16:25:33;7.79;84.65
62476;DHT22;50739;45.670;11.936;2023-12-22T16:30:36;7.70;84.77
62476;DHT22;50739;45.670;11.936;2023-12-22T16:35:40;7.54;85.65
62476;DHT22;50739;45.670;11.936;2023-12-22T16:40:43;7.44;85.65
62476;DHT22;50739;45.670;11.936;2023-12-22T16:45:45;7.58;85.22
62476;DHT22;50739;45.670;11.936;2023-12-22T16:50:49;7.39;85.17
62476;DHT22;50739;45.670;11.936;2023-12-22T16:55:51;7.36;86.45
62476;DHT22;50739;45.670;11.936;2023-12-22T17:00:54;7.41;85.63
62476;DHT22;50739;45.670;11.936;2023-12-22T17:06:01;7.29;86.20
62476;DHT22;50739;45.670;11.936;2023-12-22T17:11:04;7.27;85.85
62476;DHT22;50739;45.670;11.936;2023-12-22T17:16:07;7.24;85.64
62476;DHT22;50739;45.670;11.936;2023-12-22T17:21:12;7.41;86.29
62476;DHT22;50739;45.670;11.936;2023-12-22T17:26:16;7.55;85.33
62476;DHT22;50739;45.670;11.936;2023-12-22T17:31:18;7.56;84.56
62476;DHT22;50739;45.670;11.936;2023-12-22T17:36:22;7.46;85.28
62476;DHT22;50739;45.670;11.936;2023-12-22T17:41:25;7.41;85.02
62476;DHT22;50739;45.670;11.936;2023-12-22T17:46:32;7.44;85.25
62476;DHT22;50739;45.670;11.936;2023-12-22T17:51:36;7.18;86.15
62476;DHT22;50739;45.670;11.936;2023-12-22T17:56:39;7.28;85.32
62476;DHT22;50739;45.670;11.936;2023-12-22T18:01:41;7.28;85.57
62476;DHT22;50739;45.670;11.936;2023-12-22T18:06:47;7.25;86.04
62476;DHT22;50739;45.670;11.936;2023-12-22T18:11:49;7.32;85.75
62476;DHT22;50739;45.670;11.936;2023-12-22T18:16:51;7.27;86.09
62476;DHT22;50739;45.670;11.936;2023-12-22T18:21:55;7.15;86.51
62476;DHT22;50739;45.670;11.936;2023-12-22T18:26:57;7.08;86.54
62476;DHT22;50739;45.670;11.936;2023-12-22T18:32:00;6.96;86.64
62476;DHT22;50739;45.670;11.936;2023-12-22T18:37:04;6.91;87.60
62476;DHT22;50739;45.670;11.936;2023-12-22T18:42:06;6.98;87.05
62476;DHT22;50739;45.670;11.936;2023-12-22T18:47:08;6.68;88.61
62476;DHT22;50739;45.670;11.936;2023-12-22T18:52:12;6.43;87.89
62476;DHT22;50739;45.670;11.936;2023-12-22T18:57:15;6.49;88.30
62476;DHT22;50739;45.670;11.936;2023-12-22T19:02:17;6.35;88.77
62476;DHT22;50739;45.670;11.936;2023-12-22T19:07:21;6.32;88.71
62476;DHT22;50739;45.670;11.936;2023-12-22T19:12:23;6.15;88.62
62476;DHT22;50739;45.670;11.936;2023-12-22T19:17:27;6.34;88.44
62476;DHT22;50739;45.670;11.936;2023-12-22T19:22:40;6.28;89.09
62476;DHT22;50739;45.670;11.936;2023-12-22T19:27:43;6.14;88.11
62476;DHT22;50739;45.670;11.936;2023-12-22T19:32:46;5.98;88.45
62476;DHT22;50739;45.670;11.936;2023-12-22T19:37:53;5.90;87.98
62476;DHT22;50739;45.670;11.936;2023-12-22T19:42:56;5.60;88.94
62476;DHT22;50739;45.670;11.936;2023-12-22T19:47:58;5.56;90.37
62476;DHT22;50739;45.670;11.936;2023-12-22T19:53:02;5.70;89.23
62476;DHT22;50739;45.670;11.936;2023-12-22T19:58:04;5.62;89.47
62476;DHT22;50739;45.670;11.936;2023-12-22T20:03:07;5.46;89.76
62476;DHT22;50739;45.670;11.936;2023-12-22T20:08:11;5.45;89.56
62476;DHT22;50739;45.670;11.936;2023-12-22T20:50:09;5.48;90.73
62476;DHT22;50739;45.670;11.936;2023-12-22T20:55:14;5.36;91.41
62476;DHT22;50739;45.670;11.936;2023-12-22T21:00:17;5.32;90.97
62476;DHT22;50739;45.670;11.936;2023-12-22T21:05:21;5.35;90.58
62476;DHT22;50739;45.670;11.936;2023-12-22T21:10:24;5.36;90.12
62476;DHT22;50739;45.670;11.936;2023-12-22T21:15:29;5.24;89.76
62476;DHT22;50739;45.670;11.936;2023-12-22T21:20:33;5.20;90.51
62476;DHT22;50739;45.670;11.936;2023-12-22T21:25:44;5.32;90.68
62476;DHT22;50739;45.670;11.936;2023-12-22T21:30:51;4.97;91.17
62476;DHT22;50739;45.670;11.936;2023-12-22T21:35:56;5.24;90.35
62476;DHT22;50739;45.670;11.936;2023-12-22T21:40:58;5.12;89.41
62476;DHT22;50739;45.670;11.936;2023-12-22T21:46:01;5.04;90.72
62476;DHT22;50739;45.670;11.936;2023-12-22T21:51:05;4.95;90.79
62476;DHT22;50739;45.670;11.936;2023-12-22T21:56:20;5.05;90.34
62476;DHT22;50739;45.670;11.936;2023-12-22T22:01:43;5.12;89.95
62476;DHT22;50739;45.670;11.936;2023-12-22T22:06:50;5.10;89.98
62476;DHT22;50739;45.670;11.936;2023-12-22T22:11:52;5.08;90.12
62476;DHT22;50739;45.670;11.936;2023-12-22T22:16:54;5.04;89.80
62476;DHT22;50739;45.670;11.936;2023-12-22T22:21:58;5.14;89.96
62476;DHT22;50739;45.670;11.936;2023-12-22T22:27:00;5.07;89.28
62476;DHT22;50739;45.670;11.936;2023-12-22T22:32:04;4.81;89.37
62476;DHT22;50739;45.670;11.936;2023-12-22T22:37:08;4.64;90.96
62476;DHT22;50739;45.670;11.936;2023-12-22T22:42:20;4.81;90.21
62476;DHT22;50739;45.670;11.936;2023-12-22T22:47:25;4.81;90.61
62476;DHT22;50739;45.670;11.936;2023-12-22T22:52:29;4.83;89.99
62476;DHT22;50739;45.670;11.936;2023-12-22T22:57:32;4.69;90.62
62476;DHT22;50739;45.670;11.936;2023-12-22T23:02:34;4.87;91.04
62476;DHT22;50739;45.670;11.936;2023-12-22T23:07:38;4.91;90.98
62476;DHT22;50739;45.670;11.936;2023-12-22T23:12:40;4.87;89.96
62476;DHT22;50739;45.670;11.936;2023-12-22T23:17:42;4.55;90.90
62476;DHT22;50739;45.670;11.936;2023-12-22T23:22:52;4.52;91.12
62476;DHT22;50739;45.670;11.936;2023-12-22T23:27:56;4.49;90.43
62476;DHT22;50739;45.670;11.936;2023-12-22T23:32:58;4.41;91.52
62476;DHT22;50739;45.670;11.936;2023-12-22T23:38:02;4.52;90.98
62476;DHT22;50739;45.670;11.936;2023-12-22T23:43:04;4.81;90.03
62476;DHT22;50739;45.670;11.936;2023-12-22T23:48:07;4.57;90.66
62476;DHT22;50739;45.670;11.936;2023-12-22T23:53:11;4.72;90.99
62476;DHT22;50739;45.670;11.936;2023-12-22T23:58:13;4.63;90.51
